| Date | Time | Temp. (oF) | Dew Point (oF) | Rel. Hum. (%) | Press. (in.) | Wind Dir. | Wind Speed (mph) | Hourly Rainfall (in.) |
|
|---|---|---|---|---|---|---|---|---|---|
| 1 | 07/22 | 00:00 | 65 | 64 | 100 | 29.68 | N | 8 | 0.00 |
| 2 | 07/21 | 23:00 | 64 | 63 | 100 | 29.74 | NE | 8 | 0.00 |
| 3 | 07/21 | 22:00 | 62 | 62 | 100 | 29.78 | ENE | 8 | 0.01 |
| 4 | 07/21 | 21:00 | 61 | 60 | 98 | 29.81 | NNE | 6 | 0.06 |
| 5 | 07/21 | 20:00 | 63 | 62 | 98 | 29.83 | ENE | 10 | 0.08 |
| 6 | 07/21 | 19:00 | 64 | 63 | 98 | 29.85 | ENE | 8 | 0.13 |
| 7 | 07/21 | 18:00 | 65 | 64 | 97 | 29.87 | N | 11 | 0.09 |
| 8 | 07/21 | 17:00 | 66 | 65 | 98 | 29.90 | NE | 10 | 0.12 |
| 9 | 07/21 | 16:00 | 66 | 64 | 96 | 29.91 | NNE | 5 | 0.06 |
| 10 | 07/21 | 15:00 | 66 | 64 | 95 | 29.93 | NE | 6 | 0.16 |
| 11 | 07/21 | 14:00 | 67 | 64 | 92 | 29.96 | N | 1 | 0.13 |
| 12 | 07/21 | 13:00 | 69 | 64 | 87 | 29.98 | ENE | 1 | 0.05 |
| 13 | 07/21 | 12:00 | 71 | 66 | 86 | 29.99 | NE | 2 | 0.01 |
| 14 | 07/21 | 11:00 | 70 | 64 | 84 | 30.00 | ESE | 4 | 0.03 |
| 15 | 07/21 | 10:00 | 73 | 63 | 72 | 30.00 | ESE | 7 | 0.00 |
| 16 | 07/21 | 09:00 | 70 | 62 | 78 | 30.00 | E | 6 | 0.00 |
| 17 | 07/21 | 08:00 | 68 | 61 | 80 | 30.01 | ENE | 3 | 0.00 |
| 18 | 07/21 | 07:00 | 65 | 60 | 86 | 30.01 | ENE | 4 | 0.00 |
| 19 | 07/21 | 06:00 | 64 | 60 | 87 | 30.01 | NE | 3 | 0.00 |
| 20 | 07/21 | 05:00 | 64 | 60 | 87 | 30.00 | E | 1 | 0.00 |
| 21 | 07/21 | 04:00 | 65 | 60 | 84 | 30.02 | NE | 1 | 0.00 |
| 22 | 07/21 | 03:00 | 66 | 60 | 82 | 30.03 | E | 2 | 0.00 |
| 23 | 07/21 | 02:00 | 67 | 59 | 78 | 30.04 | E | 4 | 0.00 |
| 24 | 07/21 | 01:00 | 69 | 60 | 75 | 30.05 | E | 3 | 0.00 |